Walla Walla, Washington
Current Conditions -  °F | °C
As of 1:34 PM on Thursday 23 Oct 2014 (Local Time) from KALW Reporting Station
Light Rain Light Rain  
Wind Chill: 14°   Ceiling: 3100
Heat Index: 14°   Visibility: 2.5mi
Dew Point: 11°   Wind: 13mph
Humidity: 81%   Direction: 270°W
Pressure: 29.86"   Gusts: NA
Location:  46.07°N, 118.34°W
Report Text: KALW 232034Z 27011KT 2 1/2SM -RA FEW024 OVC031 14/11 A2986 RMK AO2 RAB26 P0002 T01390106
Loading
Personal Weather Stations






























Interactive Weather Map
Tropical Storm Tracking
New forecast layout! Learn more

10-Day Weather Forecast

Advertisements
Track Severe Weather on mobile